createdAt,value
2023-04-18T00:02:23.232Z,102943.78
2023-04-18T00:04:50.491Z,102956.94
2023-04-18T00:07:17.618Z,102959.59
2023-04-18T00:09:44.666Z,102955.22
2023-04-18T00:12:11.370Z,102957.78
2023-04-18T00:14:38.028Z,102958.72
2023-04-18T00:17:08.809Z,102959.59
2023-04-18T00:19:37.295Z,102952.72
2023-04-18T00:22:03.709Z,102957.13
2023-04-18T00:24:30.153Z,102958.16
2023-04-18T00:26:57.143Z,102954.06
2023-04-18T00:29:23.680Z,102961.19
2023-04-18T00:31:50.136Z,102960.34
2023-04-18T00:34:16.484Z,102951.59
2023-04-18T00:36:42.920Z,102957.72
2023-04-18T00:39:09.338Z,102951.72
2023-04-18T00:41:35.722Z,102967.59
2023-04-18T00:44:02.132Z,102965.09
2023-04-18T00:46:28.619Z,102963.47
2023-04-18T00:48:55.519Z,102962.59
2023-04-18T00:51:22.018Z,102949.41
2023-04-18T00:53:48.723Z,102951.97
2023-04-18T00:56:15.575Z,102952.75
2023-04-18T00:58:42.038Z,102952.72
2023-04-18T01:01:09.435Z,102949.25
2023-04-18T01:03:37.418Z,102956.22
2023-04-18T01:06:04.260Z,102941.50
2023-04-18T01:08:30.810Z,102951.31
2023-04-18T01:10:57.334Z,102956.59
2023-04-18T01:13:23.881Z,102952.31
2023-04-18T01:15:51.703Z,102951.41
2023-04-18T01:18:19.057Z,102952.19
2023-04-18T01:20:48.153Z,102948.81
2023-04-18T01:23:15.790Z,102945.41
2023-04-18T01:25:42.880Z,102950.66
2023-04-18T01:28:09.994Z,102943.78
2023-04-18T01:30:36.760Z,102942.03
2023-04-18T01:33:04.497Z,102937.66
2023-04-18T01:35:31.902Z,102934.31
2023-04-18T01:37:58.951Z,102936.94
2023-04-18T01:40:25.428Z,102934.38
2023-04-18T01:42:52.113Z,102933.44
2023-04-18T01:45:20.069Z,102927.41
2023-04-18T01:47:47.043Z,102927.53
2023-04-18T01:50:13.943Z,102924.19
2023-04-18T01:52:40.409Z,102926.81
2023-04-18T01:55:07.137Z,102928.59
2023-04-18T01:57:36.598Z,102924.31
2023-04-18T02:00:06.914Z,102930.38
2023-04-18T02:02:33.426Z,102925.13
2023-04-18T02:04:59.983Z,102920.72
2023-04-18T02:07:26.616Z,102922.47
2023-04-18T02:09:53.005Z,102924.19
2023-04-18T02:12:19.387Z,102915.47
2023-04-18T02:14:45.709Z,102919.00
2023-04-18T02:17:12.092Z,102931.25
2023-04-18T02:19:38.470Z,102925.25
2023-04-18T02:22:04.853Z,102920.81
2023-04-18T02:24:31.296Z,102918.25
2023-04-18T02:26:58.192Z,102917.47
2023-04-18T02:29:24.711Z,102920.97
2023-04-18T02:31:51.166Z,102918.34
2023-04-18T02:34:17.587Z,102916.53
2023-04-18T02:36:43.936Z,102921.78
2023-04-18T02:39:10.416Z,102921.75
2023-04-18T02:41:37.941Z,102927.03
2023-04-18T02:44:04.362Z,102927.97
2023-04-18T02:46:30.919Z,102921.16
2023-04-18T02:48:57.468Z,102927.25
2023-04-18T02:51:24.040Z,102927.28
2023-04-18T02:53:54.898Z,102929.97
2023-04-18T02:56:22.227Z,102924.75
2023-04-18T02:58:49.096Z,102923.13
2023-04-18T03:01:17.642Z,102925.75
2023-04-18T03:03:44.241Z,102930.09
2023-04-18T03:06:10.591Z,102922.28
2023-04-18T03:08:36.961Z,102924.06
2023-04-18T03:11:03.390Z,102916.22
2023-04-18T03:13:29.838Z,102916.22
2023-04-18T03:15:56.305Z,102919.66
2023-04-18T03:18:22.782Z,102908.50
2023-04-18T03:20:49.144Z,102913.81
2023-04-18T03:23:15.537Z,102918.25
2023-04-18T03:25:41.935Z,102926.13
2023-04-18T03:28:08.312Z,102925.22
2023-04-18T03:30:34.748Z,102920.84
2023-04-18T03:33:02.866Z,102923.44
2023-04-18T03:35:29.433Z,102931.34
2023-04-18T03:37:56.021Z,102934.91
2023-04-18T03:40:22.415Z,102934.16
2023-04-18T03:42:48.776Z,102928.00
2023-04-18T03:45:15.682Z,102929.75
2023-04-18T03:47:42.091Z,102934.22
2023-04-18T03:50:08.948Z,102939.56
2023-04-18T03:52:35.280Z,102928.19
2023-04-18T03:55:01.712Z,102933.44
2023-04-18T03:57:28.105Z,102938.69
2023-04-18T03:59:54.525Z,102938.75
2023-04-18T04:02:21.033Z,102938.78
2023-04-18T04:04:47.571Z,102940.53
2023-04-18T04:07:14.172Z,102941.53
2023-04-18T04:09:40.648Z,102936.31
2023-04-18T04:12:07.028Z,102940.63
2023-04-18T04:14:33.450Z,102938.81
2023-04-18T04:16:59.942Z,102943.16
2023-04-18T04:19:26.316Z,102941.53
2023-04-18T04:21:52.744Z,102932.81
2023-04-18T04:24:20.393Z,102935.47
2023-04-18T04:26:46.734Z,102943.34
2023-04-18T04:29:13.824Z,102939.00
2023-04-18T04:31:40.293Z,102938.09
2023-04-18T04:34:07.053Z,102940.69
2023-04-18T04:36:33.536Z,102941.66
2023-04-18T04:38:59.880Z,102939.00
2023-04-18T04:41:27.720Z,102948.56
2023-04-18T04:43:54.363Z,102943.28
2023-04-18T04:46:21.110Z,102947.69
2023-04-18T04:48:47.548Z,102952.88
2023-04-18T04:51:13.978Z,102948.53
2023-04-18T04:53:40.404Z,102948.56
2023-04-18T04:56:07.100Z,102956.34
2023-04-18T04:58:33.525Z,102955.53
2023-04-18T05:00:59.918Z,102960.81
2023-04-18T05:03:26.508Z,102960.75
2023-04-18T05:05:53.378Z,102951.16
2023-04-18T05:08:19.875Z,102957.28
2023-04-18T05:10:47.567Z,102952.94
2023-04-18T05:13:13.943Z,102959.06
2023-04-18T05:15:40.564Z,102962.56
2023-04-18T05:18:07.292Z,102960.78
2023-04-18T05:20:33.860Z,102963.41
2023-04-18T05:23:00.288Z,102970.41
2023-04-18T05:25:26.888Z,102961.69
2023-04-18T05:27:53.306Z,102967.78
2023-04-18T05:30:19.778Z,102966.94
2023-04-18T05:32:46.232Z,102959.91
2023-04-18T05:35:12.735Z,102979.13
2023-04-18T05:37:39.173Z,102971.34
2023-04-18T05:40:06.788Z,102973.97
2023-04-18T05:42:33.190Z,102976.56
2023-04-18T05:44:59.605Z,102976.63
2023-04-18T05:47:28.433Z,102980.97
2023-04-18T05:49:55.297Z,102982.63
2023-04-18T05:52:21.802Z,102984.38
2023-04-18T05:54:48.248Z,102981.75
2023-04-18T05:57:14.637Z,102982.63
2023-04-18T05:59:40.995Z,102978.28
2023-04-18T06:02:13.149Z,102977.41
2023-04-18T06:04:43.867Z,102979.09
2023-04-18T06:07:10.601Z,102988.69
2023-04-18T06:09:37.014Z,102986.94
2023-04-18T06:12:03.844Z,102987.91
2023-04-18T06:14:30.245Z,102987.00
2023-04-18T06:16:56.781Z,102993.94
2023-04-18T06:19:23.226Z,102997.41
2023-04-18T06:21:50.000Z,102993.00
2023-04-18T06:24:16.737Z,103001.75
2023-04-18T06:26:43.491Z,103000.91
2023-04-18T06:29:09.892Z,102996.50
2023-04-18T06:31:36.355Z,102999.88
2023-04-18T06:34:02.781Z,102996.38
2023-04-18T06:36:29.121Z,102996.41
2023-04-18T06:38:55.462Z,102993.75
2023-04-18T06:41:21.863Z,102998.91
2023-04-18T06:44:14.596Z,102996.25
2023-04-18T06:46:34.666Z,103001.44
2023-04-18T06:49:01.197Z,103007.50
2023-04-18T06:51:27.937Z,103003.09
2023-04-18T06:53:54.445Z,103005.69
2023-04-18T06:56:20.848Z,103011.75
2023-04-18T06:58:47.736Z,103018.75
2023-04-18T07:01:14.213Z,103012.56
2023-04-18T07:03:40.800Z,103015.16
2023-04-18T07:06:08.850Z,103012.59
2023-04-18T07:08:35.603Z,103020.47
2023-04-18T07:11:02.218Z,103016.94
2023-04-18T07:13:28.722Z,103016.91
2023-04-18T07:15:55.175Z,103021.22
2023-04-18T07:18:34.298Z,103011.63
2023-04-18T07:21:03.503Z,103010.75
2023-04-18T07:23:29.920Z,103021.22
2023-04-18T07:25:58.532Z,103022.06
2023-04-18T07:28:24.980Z,103018.53
2023-04-18T07:30:51.426Z,103019.34
2023-04-18T07:33:17.871Z,103013.22
2023-04-18T07:35:46.074Z,103013.16
2023-04-18T07:38:12.966Z,103020.13
2023-04-18T07:40:39.395Z,103014.84
2023-04-18T07:43:05.783Z,103020.03
2023-04-18T07:45:33.392Z,103012.13
2023-04-18T07:47:59.770Z,103012.09
2023-04-18T07:50:26.923Z,103009.38
2023-04-18T07:52:53.353Z,103008.41
2023-04-18T07:55:19.733Z,103005.66
2023-04-18T07:57:50.224Z,103009.09
2023-04-18T08:00:18.494Z,103018.59
2023-04-18T08:02:45.823Z,103016.84
2023-04-18T08:05:12.347Z,103010.66
2023-04-18T08:07:38.872Z,103015.75
2023-04-18T08:10:05.846Z,103009.56
2023-04-18T08:12:32.466Z,103011.31
2023-04-18T08:14:59.078Z,103012.03
2023-04-18T08:17:25.676Z,103015.44
2023-04-18T08:19:52.066Z,103014.47
2023-04-18T08:22:18.496Z,103010.00
2023-04-18T08:25:00.958Z,103013.31
2023-04-18T08:27:28.371Z,103015.63
2023-04-18T08:29:55.302Z,103021.75
2023-04-18T08:32:21.780Z,103024.19
2023-04-18T08:34:48.291Z,103013.50
2023-04-18T08:37:14.718Z,103020.41
2023-04-18T08:39:41.139Z,103020.47
2023-04-18T08:42:10.203Z,103022.28
2023-04-18T08:44:37.687Z,103019.66
2023-04-18T08:47:04.190Z,103024.94
2023-04-18T08:49:31.443Z,103021.56
2023-04-18T08:52:01.295Z,103025.03
2023-04-18T08:54:30.460Z,103016.25
2023-04-18T08:57:12.310Z,103021.44
2023-04-18T08:59:40.056Z,103020.44
2023-04-18T09:02:08.928Z,103026.63
2023-04-18T09:04:37.059Z,103022.28
2023-04-18T09:07:10.239Z,103022.28
2023-04-18T09:09:43.328Z,103016.00
2023-04-18T09:12:11.168Z,103017.63
2023-04-18T09:14:37.651Z,103022.88
2023-04-18T09:17:05.444Z,103021.97
2023-04-18T09:19:33.722Z,103013.09
2023-04-18T09:22:02.100Z,103013.91
2023-04-18T09:24:29.158Z,103007.75
2023-04-18T09:26:57.114Z,103005.91
2023-04-18T09:29:42.399Z,103010.91
2023-04-18T09:32:09.276Z,103010.69
2023-04-18T09:34:42.412Z,103014.00
2023-04-18T09:37:09.810Z,103011.38
2023-04-18T09:39:37.849Z,103006.97
2023-04-18T09:42:04.409Z,103015.72
2023-04-18T09:44:30.902Z,103007.84
2023-04-18T09:46:57.348Z,103003.44
2023-04-18T09:49:24.021Z,103006.03
2023-04-18T09:51:55.165Z,103002.50
2023-04-18T09:54:25.818Z,102997.22
2023-04-18T09:56:54.218Z,102996.28
2023-04-18T09:59:54.884Z,103005.09
2023-04-18T10:02:22.959Z,102999.72
2023-04-18T10:04:54.025Z,102995.34
2023-04-18T10:07:20.963Z,102990.88
2023-04-18T10:09:49.004Z,102998.78
2023-04-18T10:12:17.283Z,103005.75
2023-04-18T10:14:44.092Z,102994.41
2023-04-18T10:17:11.739Z,102998.84
2023-04-18T10:19:41.882Z,103006.78
2023-04-18T10:22:08.491Z,103005.91
2023-04-18T10:24:53.592Z,102995.38
2023-04-18T10:27:49.167Z,102999.47
2023-04-18T10:30:18.849Z,102983.38
2023-04-18T10:32:48.480Z,102981.47
2023-04-18T10:35:15.005Z,102980.63
2023-04-18T10:37:51.554Z,102985.97
2023-04-18T10:40:32.308Z,102982.44
2023-04-18T10:42:59.003Z,102976.25
2023-04-18T10:45:27.039Z,102977.78
2023-04-18T10:48:22.685Z,102975.78
2023-04-18T10:51:17.697Z,102965.22
2023-04-18T10:53:51.472Z,102962.06
2023-04-18T10:56:17.911Z,102966.66
2023-04-18T10:58:52.079Z,102964.75
2023-04-18T11:01:37.960Z,102954.13
2023-04-18T11:04:13.105Z,102943.25
2023-04-18T11:06:50.580Z,102947.34
2023-04-18T11:09:17.103Z,102947.13
2023-04-18T11:11:44.295Z,102945.03
2023-04-18T11:14:10.861Z,102950.84
2023-04-18T11:16:37.898Z,102949.94
2023-04-18T11:19:21.408Z,102950.94
2023-04-18T11:21:47.796Z,102945.03
2023-04-18T11:24:22.065Z,102947.94
2023-04-18T11:26:48.549Z,102942.91
2023-04-18T11:29:17.940Z,102944.66
2023-04-18T11:31:52.168Z,102942.97
2023-04-18T11:34:18.876Z,102939.63
2023-04-18T11:36:50.789Z,102941.50
2023-04-18T11:39:17.779Z,102928.53
2023-04-18T11:41:50.232Z,102937.31
2023-04-18T11:44:18.454Z,102939.88
2023-04-18T11:46:47.648Z,102939.78
2023-04-18T11:49:27.687Z,102947.56
2023-04-18T11:51:54.292Z,102952.84
2023-04-18T11:54:38.595Z,102949.47
2023-04-18T11:57:06.154Z,102951.22
2023-04-18T11:59:32.831Z,102951.16
2023-04-18T12:02:14.849Z,102954.53
2023-04-18T12:04:54.469Z,102949.25
2023-04-18T12:07:37.342Z,102945.72
2023-04-18T12:10:09.420Z,102941.13
2023-04-18T12:12:36.647Z,102937.25
2023-04-18T12:15:15.029Z,102935.34
2023-04-18T12:17:44.146Z,102935.22
2023-04-18T12:20:11.597Z,102943.13
2023-04-18T12:22:44.995Z,102942.22
2023-04-18T12:25:27.425Z,102948.22
2023-04-18T12:28:01.240Z,102937.72
2023-04-18T12:30:34.608Z,102943.84
2023-04-18T12:33:04.039Z,102930.69
2023-04-18T12:35:31.635Z,102936.78
2023-04-18T12:38:00.859Z,102936.63
2023-04-18T12:40:28.745Z,102927.72
2023-04-18T12:42:55.673Z,102932.88
2023-04-18T12:45:23.177Z,102921.19
2023-04-18T12:47:51.757Z,102933.22
2023-04-18T12:50:20.540Z,102921.72
2023-04-18T12:52:47.084Z,102923.53
2023-04-18T12:55:14.354Z,102917.53
2023-04-18T12:57:42.166Z,102926.34
2023-04-18T13:00:11.254Z,102927.22
2023-04-18T13:02:38.971Z,102924.53
2023-04-18T13:05:11.405Z,102921.00
2023-04-18T13:07:40.377Z,102929.75
2023-04-18T13:10:09.077Z,102926.34
2023-04-18T13:12:35.915Z,102929.88
2023-04-18T13:15:03.342Z,102927.38
2023-04-18T13:17:29.798Z,102931.03
2023-04-18T13:19:56.521Z,102925.75
2023-04-18T13:22:23.088Z,102928.28
2023-04-18T13:24:49.580Z,102930.84
2023-04-18T13:27:16.059Z,102927.28
2023-04-18T13:29:43.493Z,102925.50
2023-04-18T13:32:10.410Z,102923.63
2023-04-18T13:34:44.388Z,102923.63
2023-04-18T13:37:11.213Z,102926.22
2023-04-18T13:39:37.943Z,102923.50
2023-04-18T13:42:04.811Z,102921.63
2023-04-18T13:44:31.610Z,102920.59
2023-04-18T13:46:58.075Z,102921.34
2023-04-18T13:49:24.603Z,102915.00
2023-04-18T13:51:53.419Z,102922.84
2023-04-18T13:54:20.085Z,102915.00
2023-04-18T13:56:46.432Z,102916.69
2023-04-18T13:59:13.104Z,102917.59
2023-04-18T14:01:39.828Z,102910.44
2023-04-18T14:04:06.539Z,102907.69
2023-04-18T14:06:33.109Z,102911.91
2023-04-18T14:08:59.554Z,102917.06
2023-04-18T14:11:26.110Z,102915.34
2023-04-18T14:13:52.543Z,102905.66
2023-04-18T14:16:22.070Z,102907.44
2023-04-18T14:18:48.753Z,102903.81
2023-04-18T14:21:15.270Z,102900.13
2023-04-18T14:23:41.962Z,102902.72
2023-04-18T14:26:08.537Z,102905.34
2023-04-18T14:28:34.968Z,102895.75
2023-04-18T14:31:02.809Z,102905.41
2023-04-18T14:33:29.439Z,102898.34
2023-04-18T14:35:55.828Z,102896.66
2023-04-18T14:38:22.266Z,102894.03
2023-04-18T14:40:48.652Z,102899.31
2023-04-18T14:43:15.027Z,102890.56
2023-04-18T14:45:41.546Z,102887.06
2023-04-18T14:48:10.046Z,102892.16
2023-04-18T14:50:38.503Z,102883.19
2023-04-18T14:53:06.393Z,102885.59
2023-04-18T14:55:34.334Z,102883.63
2023-04-18T14:58:01.301Z,102887.91
2023-04-18T15:00:28.193Z,102882.50
2023-04-18T15:02:54.887Z,102883.38
2023-04-18T15:05:23.792Z,102881.75
2023-04-18T15:07:51.878Z,102883.44
2023-04-18T15:10:19.546Z,102871.91
2023-04-18T15:12:48.791Z,102873.47
2023-04-18T15:15:15.378Z,102868.06
2023-04-18T15:17:41.918Z,102865.31
2023-04-18T15:20:09.391Z,102869.44
2023-04-18T15:22:36.094Z,102870.13
2023-04-18T15:25:04.354Z,102874.50
2023-04-18T15:27:30.985Z,102874.44
2023-04-18T15:29:57.432Z,102867.69
2023-04-18T15:32:24.641Z,102866.13
2023-04-18T15:34:51.379Z,102863.53
2023-04-18T15:37:17.770Z,102862.56
2023-04-18T15:39:44.136Z,102866.06
2023-04-18T15:42:10.612Z,102862.56
2023-04-18T15:44:37.070Z,102860.56
2023-04-18T15:47:03.617Z,102852.47
2023-04-18T15:49:29.982Z,102858.66
2023-04-18T15:51:56.825Z,102849.78
2023-04-18T15:54:23.181Z,102847.06
2023-04-18T15:56:49.592Z,102843.59
2023-04-18T15:59:16.043Z,102856.78
2023-04-18T16:01:45.188Z,102846.28
2023-04-18T16:04:12.553Z,102849.72
2023-04-18T16:06:39.270Z,102848.06
2023-04-18T16:09:06.749Z,102849.72
2023-04-18T16:11:33.110Z,102852.25
2023-04-18T16:13:59.513Z,102848.56
2023-04-18T16:16:26.605Z,102846.69
2023-04-18T16:18:53.010Z,102846.69
2023-04-18T16:21:19.558Z,102844.06
2023-04-18T16:23:45.954Z,102854.63
2023-04-18T16:26:12.336Z,102845.94
2023-04-18T16:28:38.816Z,102846.00
2023-04-18T16:31:06.439Z,102850.59
2023-04-18T16:33:33.044Z,102851.59
2023-04-18T16:36:02.525Z,102846.38
2023-04-18T16:38:29.359Z,102856.88
2023-04-18T16:40:57.329Z,102854.31
2023-04-18T16:43:26.814Z,102854.31
2023-04-18T16:45:56.404Z,102850.81
2023-04-18T16:48:26.295Z,102853.47
2023-04-18T16:50:52.611Z,102848.25
2023-04-18T16:53:18.979Z,102846.44
2023-04-18T16:55:45.416Z,102853.53
2023-04-18T16:58:11.822Z,102847.31
2023-04-18T17:00:38.607Z,102847.31
2023-04-18T17:03:07.191Z,102841.09
2023-04-18T17:05:33.746Z,102835.84
2023-04-18T17:08:00.459Z,102838.47
2023-04-18T17:10:29.446Z,102834.09
2023-04-18T17:12:56.524Z,102840.25
2023-04-18T17:15:22.998Z,102839.50
2023-04-18T17:17:50.225Z,102841.34
2023-04-18T17:20:17.833Z,102846.75
2023-04-18T17:22:44.643Z,102845.16
2023-04-18T17:25:11.101Z,102846.13
2023-04-18T17:27:39.999Z,102849.47
2023-04-18T17:30:07.180Z,102846.84
2023-04-18T17:32:33.593Z,102852.13
2023-04-18T17:35:04.031Z,102848.56
2023-04-18T17:37:31.245Z,102860.84
2023-04-18T17:39:58.802Z,102860.00
2023-04-18T17:42:25.334Z,102844.25
2023-04-18T17:44:51.767Z,102859.25
2023-04-18T17:47:18.304Z,102860.22
2023-04-18T17:49:45.933Z,102859.41
2023-04-18T17:52:12.334Z,102856.00
2023-04-18T17:54:38.719Z,102864.88
2023-04-18T17:57:05.169Z,102851.78
2023-04-18T17:59:37.451Z,102852.75
2023-04-18T18:02:05.235Z,102859.88
2023-04-18T18:04:31.720Z,102859.91
2023-04-18T18:06:58.600Z,102863.50
2023-04-18T18:09:25.176Z,102854.88
2023-04-18T18:11:53.402Z,102861.97
2023-04-18T18:14:21.348Z,102861.16
2023-04-18T18:16:47.863Z,102862.19
2023-04-18T18:19:15.003Z,102864.03
2023-04-18T18:21:41.599Z,102864.03
2023-04-18T18:24:08.285Z,102866.81
2023-04-18T18:26:36.144Z,102869.59
2023-04-18T18:29:09.164Z,102866.97
2023-04-18T18:31:36.051Z,102867.94
2023-04-18T18:34:02.560Z,102870.69
2023-04-18T18:36:28.987Z,102874.34
2023-04-18T18:38:55.612Z,102867.41
2023-04-18T18:41:24.552Z,102874.50
2023-04-18T18:43:51.970Z,102872.72
2023-04-18T18:46:18.836Z,102878.09
2023-04-18T18:48:45.355Z,102876.44
2023-04-18T18:51:11.758Z,102882.72
2023-04-18T18:53:40.317Z,102882.78
2023-04-18T18:56:08.641Z,102883.91
2023-04-18T18:58:35.641Z,102882.19
2023-04-18T19:01:03.313Z,102886.56
2023-04-18T19:03:30.340Z,102888.31
2023-04-18T19:05:56.922Z,102891.75
2023-04-18T19:08:23.354Z,102904.00
2023-04-18T19:10:50.528Z,102904.84
2023-04-18T19:13:22.442Z,102905.00
2023-04-18T19:15:48.900Z,102913.81
2023-04-18T19:18:15.342Z,102909.56
2023-04-18T19:20:41.796Z,102915.78
2023-04-18T19:23:08.136Z,102913.22
2023-04-18T19:25:34.533Z,102917.84
2023-04-18T19:28:00.900Z,102926.66
2023-04-18T19:30:27.358Z,102926.06
2023-04-18T19:32:53.814Z,102926.13
2023-04-18T19:35:20.421Z,102933.28
2023-04-18T19:37:46.898Z,102930.69
2023-04-18T19:40:14.000Z,102922.94
2023-04-18T19:42:40.788Z,102933.59
2023-04-18T19:45:07.627Z,102936.28
2023-04-18T19:47:34.209Z,102942.50
2023-04-18T19:50:01.179Z,102942.69
2023-04-18T19:52:27.677Z,102940.97
2023-04-18T19:54:55.213Z,102949.75
2023-04-18T19:57:21.985Z,102942.78
2023-04-18T19:59:48.408Z,102948.13
2023-04-18T20:02:15.169Z,102951.66
2023-04-18T20:04:42.121Z,102953.50
2023-04-18T20:07:08.726Z,102953.56
2023-04-18T20:09:35.286Z,102961.53
2023-04-18T20:12:01.858Z,102964.09
2023-04-18T20:14:28.885Z,102965.06
2023-04-18T20:16:56.220Z,102961.69
2023-04-18T20:19:25.629Z,102961.75
2023-04-18T20:21:52.567Z,102973.28
2023-04-18T20:24:21.032Z,102971.72
2023-04-18T20:26:47.791Z,102969.22
2023-04-18T20:29:14.313Z,102971.06
2023-04-18T20:31:42.425Z,102971.06
2023-04-18T20:34:09.868Z,102971.97
2023-04-18T20:36:41.277Z,102973.78
2023-04-18T20:39:08.795Z,102975.50
2023-04-18T20:41:36.767Z,102981.75
2023-04-18T20:44:05.199Z,102978.34
2023-04-18T20:46:32.559Z,102979.28
2023-04-18T20:48:59.107Z,102978.50
2023-04-18T20:51:26.849Z,102976.72
2023-04-18T20:53:53.276Z,102975.06
2023-04-18T20:56:20.049Z,102980.50
2023-04-18T20:58:46.500Z,102983.16
2023-04-18T21:01:13.015Z,102991.84
2023-04-18T21:03:39.580Z,102988.44
2023-04-18T21:06:06.186Z,102982.50
2023-04-18T21:08:35.022Z,102974.66
2023-04-18T21:11:01.554Z,102983.41
2023-04-18T21:13:27.933Z,102991.31
2023-04-18T21:15:56.923Z,102982.56
2023-04-18T21:18:23.799Z,102991.38
2023-04-18T21:20:50.531Z,102989.72
2023-04-18T21:23:16.973Z,102994.09
2023-04-18T21:25:43.304Z,102989.78
2023-04-18T21:28:09.811Z,102999.41
2023-04-18T21:30:36.564Z,103000.41
2023-04-18T21:33:03.529Z,102988.97
2023-04-18T21:35:30.103Z,102990.78
2023-04-18T21:37:56.886Z,102992.59
2023-04-18T21:40:24.282Z,102995.28
2023-04-18T21:42:53.223Z,103001.44
2023-04-18T21:45:19.610Z,102992.59
2023-04-18T21:47:46.718Z,102995.31
2023-04-18T21:50:13.190Z,102998.06
2023-04-18T21:52:39.620Z,102995.44
2023-04-18T21:55:06.240Z,102995.50
2023-04-18T21:57:32.666Z,103006.09
2023-04-18T21:59:59.021Z,102998.25
2023-04-18T22:02:26.659Z,102996.63
2023-04-18T22:04:53.221Z,102992.34
2023-04-18T22:07:19.709Z,102995.94
2023-04-18T22:09:46.417Z,102997.66
2023-04-18T22:12:14.105Z,102990.50
2023-04-18T22:14:41.838Z,102975.81
2023-04-18T22:17:09.198Z,102979.34
2023-04-18T22:19:35.695Z,102987.22
2023-04-18T22:22:02.173Z,102991.59
2023-04-18T22:24:28.515Z,102987.41
2023-04-18T22:26:55.574Z,102990.06
2023-04-18T22:29:21.928Z,102990.06
2023-04-18T22:31:48.356Z,102994.44
2023-04-18T22:34:14.873Z,102989.31
2023-04-18T22:36:42.651Z,102988.25
2023-04-18T22:39:09.099Z,102990.78
2023-04-18T22:41:35.511Z,102993.59
2023-04-18T22:44:01.979Z,102988.47
2023-04-18T22:46:28.550Z,102995.34
2023-04-18T22:48:55.102Z,102995.47
2023-04-18T22:51:23.420Z,102995.53
2023-04-18T22:53:49.899Z,103001.78
2023-04-18T22:56:16.359Z,103001.88
2023-04-18T22:58:42.774Z,103002.81
2023-04-18T23:01:09.135Z,103004.66
2023-04-18T23:03:35.774Z,103011.63
2023-04-18T23:06:02.253Z,103006.19
2023-04-18T23:08:28.596Z,103004.47
2023-04-18T23:10:55.031Z,103006.25
2023-04-18T23:13:21.552Z,103015.00
2023-04-18T23:15:47.993Z,103016.75
2023-04-18T23:18:14.610Z,103019.47
2023-04-18T23:20:40.999Z,103023.88
2023-04-18T23:23:07.402Z,103026.53
2023-04-18T23:25:33.925Z,103017.94
2023-04-18T23:28:00.426Z,103016.25
2023-04-18T23:30:26.837Z,103027.53
2023-04-18T23:32:53.845Z,103018.03
2023-04-18T23:35:20.466Z,103022.28
2023-04-18T23:37:46.894Z,103018.75
2023-04-18T23:40:13.351Z,103016.09
2023-04-18T23:42:39.717Z,103019.59
2023-04-18T23:45:06.461Z,103016.88
2023-04-18T23:47:32.904Z,103016.97
2023-04-18T23:49:59.335Z,103015.09
2023-04-18T23:52:25.759Z,103007.38
2023-04-18T23:54:52.247Z,103012.72
2023-04-18T23:57:18.634Z,103012.88
2023-04-18T23:59:44.956Z,103005.81
